createdAt,value
2023-10-18T00:01:27.735Z,79.00
2023-10-18T00:03:56.151Z,78.80
2023-10-18T00:06:24.340Z,79.90
2023-10-18T00:08:58.649Z,80.20
2023-10-18T00:11:28.800Z,79.90
2023-10-18T00:13:55.494Z,78.90
2023-10-18T00:16:25.618Z,79.20
2023-10-18T00:18:52.378Z,77.90
2023-10-18T00:21:19.065Z,77.60
2023-10-18T00:23:45.810Z,77.60
2023-10-18T00:26:13.022Z,77.80
2023-10-18T00:28:39.915Z,77.80
2023-10-18T00:31:21.717Z,78.40
2023-10-18T00:33:49.025Z,78.80
2023-10-18T00:36:18.663Z,78.90
2023-10-18T00:38:45.751Z,78.80
2023-10-18T00:41:23.466Z,79.10
2023-10-18T00:43:53.991Z,77.40
2023-10-18T00:46:21.494Z,77.30
2023-10-18T00:48:48.277Z,76.80
2023-10-18T00:51:19.430Z,77.40
2023-10-18T00:53:49.929Z,77.90
2023-10-18T00:56:17.115Z,80.70
2023-10-18T00:58:45.511Z,80.30
2023-10-18T01:01:13.201Z,80.50
2023-10-18T01:03:47.529Z,80.10
2023-10-18T01:06:18.535Z,80.50
2023-10-18T01:08:47.594Z,80.20
2023-10-18T01:11:15.364Z,80.10
2023-10-18T01:13:43.201Z,79.90
2023-10-18T01:16:16.885Z,80.30
2023-10-18T01:18:50.163Z,80.20
2023-10-18T01:21:19.229Z,80.60
2023-10-18T01:23:56.835Z,80.60
2023-10-18T01:26:24.881Z,80.60
2023-10-18T01:28:54.517Z,80.50
2023-10-18T01:31:21.743Z,80.70
2023-10-18T01:33:49.416Z,79.40
2023-10-18T01:36:17.582Z,78.70
2023-10-18T01:38:53.176Z,78.20
2023-10-18T01:41:39.094Z,78.30
2023-10-18T01:44:09.026Z,78.20
2023-10-18T01:46:36.804Z,78.10
2023-10-18T01:49:08.242Z,77.60
2023-10-18T01:51:35.787Z,77.40
2023-10-18T01:54:13.896Z,79.30
2023-10-18T01:56:43.806Z,80.00
2023-10-18T01:59:14.657Z,80.50
2023-10-18T02:01:45.686Z,80.00
2023-10-18T02:04:35.812Z,80.00
2023-10-18T02:07:08.363Z,80.00
2023-10-18T02:09:51.852Z,80.00
2023-10-18T02:12:20.509Z,79.40
2023-10-18T02:14:51.856Z,79.50
2023-10-18T02:17:23.124Z,79.50
2023-10-18T02:19:50.101Z,79.20
2023-10-18T02:22:20.190Z,79.60
2023-10-18T02:24:47.411Z,79.90
2023-10-18T02:27:17.662Z,79.10
2023-10-18T02:29:46.305Z,80.20
2023-10-18T02:32:43.072Z,80.10
2023-10-18T02:35:10.744Z,80.90
2023-10-18T02:37:37.512Z,80.90
2023-10-18T02:40:10.694Z,80.40
2023-10-18T02:42:37.899Z,80.40
2023-10-18T02:45:14.411Z,80.60
2023-10-18T02:47:42.061Z,80.10
2023-10-18T02:50:09.025Z,79.90
2023-10-18T02:52:36.537Z,79.30
2023-10-18T02:55:04.046Z,79.50
2023-10-18T02:57:33.281Z,80.90
2023-10-18T03:00:00.849Z,82.00
2023-10-18T03:02:28.126Z,82.70
2023-10-18T03:04:57.212Z,82.50
2023-10-18T03:07:23.940Z,82.70
2023-10-18T03:09:50.877Z,81.90
2023-10-18T03:12:19.163Z,81.50
2023-10-18T03:14:55.055Z,82.30
2023-10-18T03:17:26.398Z,81.60
2023-10-18T03:19:57.629Z,81.90
2023-10-18T03:22:27.606Z,81.30
2023-10-18T03:24:55.417Z,81.40
2023-10-18T03:27:33.562Z,80.80
2023-10-18T03:30:13.032Z,80.20
2023-10-18T03:32:39.754Z,80.10
2023-10-18T03:35:10.593Z,80.50
2023-10-18T03:37:40.740Z,80.40
2023-10-18T03:40:20.302Z,80.70
2023-10-18T03:42:52.159Z,81.10
2023-10-18T03:45:22.953Z,81.00
2023-10-18T03:47:59.520Z,79.80
2023-10-18T03:50:32.671Z,80.10
2023-10-18T03:52:59.322Z,80.70
2023-10-18T03:55:38.013Z,80.50
2023-10-18T03:58:06.432Z,80.20
2023-10-18T04:00:39.441Z,79.20
2023-10-18T04:03:13.182Z,80.30
2023-10-18T04:05:46.564Z,80.30
2023-10-18T04:08:18.807Z,79.00
2023-10-18T04:10:46.264Z,79.80
2023-10-18T04:13:13.587Z,80.20
2023-10-18T04:15:43.144Z,80.40
2023-10-18T04:18:09.823Z,79.60
2023-10-18T04:20:43.469Z,79.80
2023-10-18T04:23:16.503Z,80.00
2023-10-18T04:25:43.641Z,80.90
2023-10-18T04:28:13.185Z,81.00
2023-10-18T04:30:39.961Z,80.80
2023-10-18T04:33:12.503Z,80.30
2023-10-18T04:35:46.478Z,80.10
2023-10-18T04:38:23.097Z,79.60
2023-10-18T04:41:02.205Z,80.60
2023-10-18T04:43:29.167Z,81.60
2023-10-18T04:45:57.944Z,81.90
2023-10-18T04:48:44.723Z,83.00
2023-10-18T04:51:27.824Z,82.60
2023-10-18T04:53:55.306Z,83.00
2023-10-18T04:56:30.869Z,82.40
2023-10-18T04:59:00.757Z,81.50
2023-10-18T05:01:34.540Z,81.70
2023-10-18T05:04:19.601Z,81.20
2023-10-18T05:06:56.361Z,80.50
2023-10-18T05:09:32.575Z,80.00
2023-10-18T05:11:59.309Z,79.90
2023-10-18T05:17:18.815Z,80.40
2023-10-18T05:19:45.946Z,80.00
2023-10-18T05:22:24.967Z,80.20
2023-10-18T05:25:19.003Z,79.70
2023-10-18T05:28:04.009Z,80.00
2023-10-18T05:30:50.087Z,79.70
2023-10-18T05:33:30.814Z,79.80
2023-10-18T05:36:32.322Z,79.80
2023-10-18T05:39:17.839Z,79.50
2023-10-18T05:41:47.471Z,79.30
2023-10-18T05:44:14.538Z,79.40
2023-10-18T05:46:42.369Z,79.80
2023-10-18T05:49:15.405Z,78.40
2023-10-18T05:52:02.302Z,78.90
2023-10-18T05:54:30.164Z,78.40
2023-10-18T05:56:57.569Z,78.20
2023-10-18T05:59:33.208Z,78.20
2023-10-18T06:02:02.246Z,78.00
2023-10-18T06:04:39.365Z,78.30
2023-10-18T06:07:10.918Z,78.40
2023-10-18T06:09:49.744Z,78.20
2023-10-18T06:12:23.926Z,77.90
2023-10-18T06:14:54.190Z,77.30
2023-10-18T06:17:27.209Z,77.30
2023-10-18T06:19:58.166Z,78.10
2023-10-18T06:22:40.098Z,77.70
2023-10-18T06:25:11.017Z,77.70
2023-10-18T06:27:40.856Z,77.70
2023-10-18T06:30:15.825Z,77.10
2023-10-18T06:32:44.748Z,76.70
2023-10-18T06:35:27.382Z,77.10
2023-10-18T06:37:55.990Z,76.50
2023-10-18T06:40:58.349Z,77.40
2023-10-18T06:43:30.379Z,76.90
2023-10-18T06:45:58.504Z,76.70
2023-10-18T06:48:29.669Z,77.30
2023-10-18T06:50:56.817Z,77.50
2023-10-18T06:53:27.202Z,77.20
2023-10-18T06:56:00.870Z,76.30
2023-10-18T06:58:30.098Z,75.70
2023-10-18T07:01:02.260Z,75.00
2023-10-18T07:03:29.284Z,75.60
2023-10-18T07:06:05.304Z,76.00
2023-10-18T07:08:35.330Z,76.30
2023-10-18T07:11:18.376Z,76.30
2023-10-18T07:13:55.401Z,76.90
2023-10-18T07:16:31.771Z,76.70
2023-10-18T07:19:07.826Z,76.90
2023-10-18T07:21:34.881Z,76.50
2023-10-18T07:24:10.765Z,76.00
2023-10-18T07:26:38.976Z,76.30
2023-10-18T07:29:07.978Z,76.10
2023-10-18T07:31:39.388Z,76.30
2023-10-18T07:34:10.357Z,76.20
2023-10-18T07:36:40.866Z,76.50
2023-10-18T07:39:07.820Z,76.60
2023-10-18T07:41:37.379Z,76.80
2023-10-18T07:44:08.011Z,76.50
2023-10-18T07:46:36.179Z,75.80
2023-10-18T07:49:06.527Z,76.40
2023-10-18T07:51:34.030Z,76.00
2023-10-18T07:54:06.152Z,75.00
2023-10-18T07:56:32.850Z,73.80
2023-10-18T07:59:18.926Z,74.00
2023-10-18T08:01:48.623Z,74.10
2023-10-18T08:04:18.616Z,74.30
2023-10-18T08:06:51.674Z,73.90
2023-10-18T08:09:21.151Z,73.70
2023-10-18T08:11:51.852Z,73.70
2023-10-18T08:14:20.311Z,73.60
2023-10-18T08:16:54.894Z,73.40
2023-10-18T08:19:24.289Z,73.30
2023-10-18T08:22:03.367Z,73.40
2023-10-18T08:24:35.422Z,73.20
2023-10-18T08:27:11.343Z,73.40
2023-10-18T08:29:38.367Z,73.10
2023-10-18T08:32:07.892Z,73.20
2023-10-18T08:34:35.694Z,73.30
2023-10-18T08:37:03.010Z,73.00
2023-10-18T08:39:29.880Z,73.40
2023-10-18T08:42:14.478Z,73.20
2023-10-18T08:44:41.653Z,73.10
2023-10-18T08:47:09.857Z,73.20
2023-10-18T08:49:54.418Z,73.40
2023-10-18T08:52:22.010Z,73.10
2023-10-18T08:54:49.837Z,73.10
2023-10-18T08:57:35.900Z,73.10
2023-10-18T09:00:38.906Z,72.70
2023-10-18T09:03:08.932Z,72.50
2023-10-18T09:05:36.624Z,72.60
2023-10-18T09:08:04.866Z,72.50
2023-10-18T09:10:38.899Z,72.10
2023-10-18T09:13:19.373Z,71.60
2023-10-18T09:16:02.704Z,71.20
2023-10-18T09:18:34.610Z,71.10
2023-10-18T09:21:14.325Z,70.80
2023-10-18T09:23:41.983Z,70.80
2023-10-18T09:26:14.241Z,70.40
2023-10-18T09:28:44.395Z,70.50
2023-10-18T09:31:23.949Z,70.70
2023-10-18T09:33:51.775Z,70.50
2023-10-18T09:36:26.625Z,69.10
2023-10-18T09:38:55.137Z,69.70
2023-10-18T09:41:27.966Z,69.80
2023-10-18T09:43:54.753Z,69.80
2023-10-18T09:46:21.696Z,69.20
2023-10-18T09:48:48.548Z,68.00
2023-10-18T09:51:16.999Z,67.70
2023-10-18T09:53:44.793Z,67.00
2023-10-18T09:56:12.451Z,66.80
2023-10-18T09:58:46.010Z,66.00
2023-10-18T10:01:49.520Z,65.80
2023-10-18T10:04:20.025Z,64.70
2023-10-18T10:06:47.448Z,64.90
2023-10-18T10:09:17.098Z,65.00
2023-10-18T10:11:47.850Z,64.50
2023-10-18T10:14:17.735Z,64.30
2023-10-18T10:17:08.967Z,64.10
2023-10-18T10:19:42.110Z,63.80
2023-10-18T10:22:13.026Z,64.00
2023-10-18T10:24:46.996Z,63.40
2023-10-18T10:27:33.746Z,62.60
2023-10-18T10:30:22.595Z,63.50
2023-10-18T10:33:07.026Z,62.50
2023-10-18T10:35:34.394Z,61.50
2023-10-18T10:38:16.512Z,60.70
2023-10-18T10:40:49.544Z,61.30
2023-10-18T10:43:19.952Z,60.90
2023-10-18T10:45:47.959Z,58.80
2023-10-18T10:48:26.718Z,58.40
2023-10-18T10:51:13.331Z,57.90
2023-10-18T10:54:02.288Z,57.80
2023-10-18T10:56:29.081Z,57.40
2023-10-18T10:58:57.173Z,57.40
2023-10-18T11:01:55.164Z,57.60
2023-10-18T11:04:29.456Z,56.90
2023-10-18T11:07:02.081Z,56.90
2023-10-18T11:09:33.719Z,57.00
2023-10-18T11:12:05.711Z,57.50
2023-10-18T11:14:32.622Z,57.50
2023-10-18T11:17:10.365Z,58.00
2023-10-18T11:19:42.223Z,58.20
2023-10-18T11:22:09.721Z,58.40
2023-10-18T11:24:40.607Z,58.40
2023-10-18T11:27:11.102Z,58.70
2023-10-18T11:29:42.746Z,57.50
2023-10-18T11:32:16.716Z,57.80
2023-10-18T11:34:45.178Z,58.20
2023-10-18T11:37:15.410Z,58.00
2023-10-18T11:39:42.504Z,57.60
2023-10-18T11:42:11.987Z,57.50
2023-10-18T11:44:40.291Z,57.60
2023-10-18T11:47:20.466Z,58.10
2023-10-18T11:49:54.787Z,58.80
2023-10-18T11:52:26.738Z,59.50
2023-10-18T11:55:09.949Z,60.00
2023-10-18T11:57:41.118Z,60.50
2023-10-18T12:00:26.469Z,61.00
2023-10-18T12:02:55.224Z,61.20
2023-10-18T12:05:26.154Z,61.90
2023-10-18T12:07:55.186Z,62.90
2023-10-18T12:10:35.854Z,63.60
2023-10-18T12:13:08.180Z,64.50
2023-10-18T12:15:35.997Z,64.80
2023-10-18T12:18:05.728Z,65.00
2023-10-18T12:20:36.565Z,65.00
2023-10-18T12:23:05.885Z,64.50
2023-10-18T12:25:33.608Z,64.80
2023-10-18T12:28:01.941Z,64.60
2023-10-18T12:30:32.690Z,64.80
2023-10-18T12:33:05.945Z,64.80
2023-10-18T12:35:36.136Z,65.00
2023-10-18T12:38:14.120Z,66.50
2023-10-18T12:40:52.173Z,66.50
2023-10-18T12:43:20.989Z,66.80
2023-10-18T12:45:51.601Z,66.70
2023-10-18T12:48:25.081Z,66.90
2023-10-18T12:50:52.933Z,67.10
2023-10-18T12:53:27.541Z,67.10
2023-10-18T12:55:58.966Z,66.50
2023-10-18T12:58:32.741Z,66.10
2023-10-18T13:01:20.259Z,66.20
2023-10-18T13:03:58.735Z,66.20
2023-10-18T13:06:32.633Z,65.70
2023-10-18T13:09:17.776Z,64.90
2023-10-18T13:11:52.117Z,63.90
2023-10-18T13:14:33.176Z,63.20
2023-10-18T13:17:04.490Z,62.70
2023-10-18T13:19:33.266Z,62.50
2023-10-18T13:22:00.499Z,63.20
2023-10-18T13:24:30.176Z,64.00
2023-10-18T13:27:01.660Z,64.20
2023-10-18T13:29:29.064Z,64.80
2023-10-18T13:31:58.905Z,65.20
2023-10-18T13:34:40.958Z,66.70
2023-10-18T13:37:11.513Z,67.00
2023-10-18T13:39:44.038Z,67.30
2023-10-18T13:42:13.052Z,67.40
2023-10-18T13:44:42.423Z,67.70
2023-10-18T13:47:13.385Z,67.90
2023-10-18T13:49:41.525Z,68.20
2023-10-18T13:52:08.904Z,68.40
2023-10-18T13:54:35.944Z,68.40
2023-10-18T13:57:03.294Z,68.80
2023-10-18T13:59:31.186Z,69.00
2023-10-18T14:01:58.375Z,69.20
2023-10-18T14:04:26.583Z,69.50
2023-10-18T14:06:59.206Z,69.90
2023-10-18T14:09:26.947Z,70.70
2023-10-18T14:11:54.310Z,72.60
2023-10-18T14:14:21.556Z,74.20
2023-10-18T14:16:49.745Z,74.20
2023-10-18T14:19:20.422Z,74.10
2023-10-18T14:21:49.788Z,74.20
2023-10-18T14:24:18.617Z,74.70
2023-10-18T14:26:45.908Z,74.90
2023-10-18T14:29:13.356Z,74.60
2023-10-18T14:31:40.644Z,75.00
2023-10-18T14:34:08.244Z,75.80
2023-10-18T14:36:36.033Z,76.60
2023-10-18T14:39:04.513Z,76.70
2023-10-18T14:41:33.642Z,77.10
2023-10-18T14:44:01.533Z,77.40
2023-10-18T14:46:31.466Z,77.80
2023-10-18T14:49:00.118Z,77.90
2023-10-18T14:51:27.872Z,77.80
2023-10-18T14:53:54.720Z,77.60
2023-10-18T14:56:23.907Z,77.20
2023-10-18T14:58:53.165Z,76.60
2023-10-18T15:01:20.190Z,76.60
2023-10-18T15:03:48.354Z,76.70
2023-10-18T15:06:18.938Z,76.60
2023-10-18T15:08:46.952Z,76.40
2023-10-18T15:11:21.379Z,76.60
2023-10-18T15:13:49.431Z,76.60
2023-10-18T15:16:17.926Z,76.50
2023-10-18T15:18:48.966Z,75.40
2023-10-18T15:21:16.711Z,76.10
2023-10-18T15:23:46.792Z,76.10
2023-10-18T15:26:26.761Z,76.10
2023-10-18T15:28:53.949Z,76.20
2023-10-18T15:31:22.281Z,76.00
2023-10-18T15:33:49.328Z,76.00
2023-10-18T15:36:24.408Z,76.30
2023-10-18T15:38:53.656Z,76.60
2023-10-18T15:41:22.135Z,76.90
2023-10-18T15:43:54.683Z,77.10
2023-10-18T15:46:28.191Z,78.10
2023-10-18T15:48:58.530Z,78.80
2023-10-18T15:51:25.858Z,79.10
2023-10-18T15:53:56.935Z,79.30
2023-10-18T15:56:28.839Z,79.60
2023-10-18T15:58:57.266Z,79.60
2023-10-18T16:01:25.058Z,79.40
2023-10-18T16:03:52.987Z,79.90
2023-10-18T16:06:21.695Z,80.40
2023-10-18T16:08:49.797Z,81.20
2023-10-18T16:11:17.028Z,81.20
2023-10-18T16:13:44.100Z,81.00
2023-10-18T16:16:12.333Z,81.20
2023-10-18T16:18:42.447Z,81.20
2023-10-18T16:21:13.719Z,81.30
2023-10-18T16:23:42.121Z,81.20
2023-10-18T16:26:18.043Z,81.50
2023-10-18T16:28:47.019Z,81.40
2023-10-18T16:31:14.878Z,81.60
2023-10-18T16:33:42.575Z,81.50
2023-10-18T16:36:10.127Z,81.60
2023-10-18T16:38:37.799Z,81.60
2023-10-18T16:41:06.271Z,81.60
2023-10-18T16:43:37.046Z,81.60
2023-10-18T16:46:06.878Z,81.40
2023-10-18T16:48:35.293Z,81.50
2023-10-18T16:51:06.678Z,81.50
2023-10-18T16:53:34.337Z,81.30
2023-10-18T16:56:01.167Z,81.50
2023-10-18T16:58:27.950Z,81.60
2023-10-18T17:01:13.732Z,82.00
2023-10-18T17:03:46.065Z,82.00
2023-10-18T17:06:14.907Z,82.30
2023-10-18T17:08:43.642Z,82.60
2023-10-18T17:11:13.496Z,82.60
2023-10-18T17:13:43.955Z,82.70
2023-10-18T17:16:11.386Z,82.70
2023-10-18T17:18:38.435Z,82.80
2023-10-18T17:21:17.486Z,82.50
2023-10-18T17:23:45.794Z,82.50
2023-10-18T17:26:13.048Z,82.60
2023-10-18T17:28:40.101Z,82.60
2023-10-18T17:31:07.128Z,82.30
2023-10-18T17:33:34.385Z,81.90
2023-10-18T17:36:01.877Z,81.80
2023-10-18T17:38:28.794Z,81.80
2023-10-18T17:40:55.696Z,81.90
2023-10-18T17:43:23.381Z,81.90
2023-10-18T17:45:51.317Z,81.90
2023-10-18T17:48:19.164Z,81.80
2023-10-18T17:50:47.540Z,81.90
2023-10-18T17:53:15.249Z,81.70
2023-10-18T17:55:45.560Z,81.70
2023-10-18T17:58:15.683Z,81.90
2023-10-18T18:00:45.532Z,81.90
2023-10-18T18:03:14.755Z,82.00
2023-10-18T18:05:44.522Z,82.00
2023-10-18T18:08:12.003Z,82.10
2023-10-18T18:10:47.464Z,82.10
2023-10-18T18:13:18.076Z,82.00
2023-10-18T18:15:45.028Z,82.30
2023-10-18T18:18:12.778Z,82.30
2023-10-18T18:20:41.621Z,82.60
2023-10-18T18:23:09.056Z,82.70
2023-10-18T18:25:38.828Z,82.70
2023-10-18T18:28:05.873Z,82.80
2023-10-18T18:30:32.876Z,82.80
2023-10-18T18:33:01.302Z,82.80
2023-10-18T18:35:28.786Z,82.80
2023-10-18T18:37:55.762Z,82.60
2023-10-18T18:40:23.510Z,82.70
2023-10-18T18:42:51.748Z,82.90
2023-10-18T18:45:21.660Z,82.80
2023-10-18T18:47:49.032Z,82.80
2023-10-18T18:50:15.907Z,82.60
2023-10-18T18:52:46.644Z,82.40
2023-10-18T18:55:15.704Z,82.40
2023-10-18T18:57:46.383Z,82.30
2023-10-18T19:00:17.034Z,82.10
2023-10-18T19:02:46.826Z,82.40
2023-10-18T19:05:14.018Z,82.90
2023-10-18T19:07:43.431Z,83.00
2023-10-18T19:10:11.437Z,83.10
2023-10-18T19:12:38.903Z,82.90
2023-10-18T19:15:11.673Z,83.30
2023-10-18T19:17:40.074Z,83.50
2023-10-18T19:20:12.613Z,83.40
2023-10-18T19:22:39.846Z,83.70
2023-10-18T19:25:10.959Z,84.20
2023-10-18T19:27:38.297Z,84.30
2023-10-18T19:30:12.958Z,84.30
2023-10-18T19:32:40.256Z,84.30
2023-10-18T19:35:10.339Z,84.30
2023-10-18T19:37:40.884Z,84.70
2023-10-18T19:40:12.122Z,84.60
2023-10-18T19:42:40.436Z,84.60
2023-10-18T19:45:09.436Z,85.00
2023-10-18T19:47:36.450Z,85.20
2023-10-18T19:50:04.298Z,84.60
2023-10-18T19:52:31.344Z,85.00
2023-10-18T19:54:58.126Z,84.90
2023-10-18T19:57:25.235Z,84.80
2023-10-18T19:59:53.664Z,84.60
2023-10-18T20:02:20.968Z,84.90
2023-10-18T20:04:48.039Z,84.60
2023-10-18T20:07:18.361Z,84.60
2023-10-18T20:09:45.378Z,84.50
2023-10-18T20:12:12.372Z,84.30
2023-10-18T20:14:39.277Z,84.00
2023-10-18T20:17:06.580Z,84.20
2023-10-18T20:19:33.773Z,83.70
2023-10-18T20:22:00.567Z,83.70
2023-10-18T20:24:27.894Z,83.80
2023-10-18T20:26:54.968Z,83.90
2023-10-18T20:29:22.043Z,83.30
2023-10-18T20:31:50.636Z,83.10
2023-10-18T20:34:17.437Z,83.70
2023-10-18T20:36:44.423Z,84.10
2023-10-18T20:39:11.268Z,84.70
2023-10-18T20:41:39.667Z,84.80
2023-10-18T20:44:18.831Z,84.70
2023-10-18T20:46:49.578Z,84.50
2023-10-18T20:49:21.491Z,84.40
2023-10-18T20:51:52.871Z,83.90
2023-10-18T20:54:20.868Z,84.10
2023-10-18T20:56:51.493Z,83.80
2023-10-18T20:59:25.537Z,83.70
2023-10-18T21:01:53.776Z,83.70
2023-10-18T21:04:20.626Z,83.30
2023-10-18T21:06:52.275Z,82.70
2023-10-18T21:09:19.670Z,83.50
2023-10-18T21:11:46.759Z,83.20
2023-10-18T21:14:16.663Z,83.40
2023-10-18T21:16:46.790Z,83.30
2023-10-18T21:19:14.878Z,82.80
2023-10-18T21:21:42.481Z,82.70
2023-10-18T21:24:09.569Z,83.10
2023-10-18T21:26:36.216Z,83.20
2023-10-18T21:29:02.978Z,83.10
2023-10-18T21:31:30.171Z,83.10
2023-10-18T21:33:56.883Z,83.40
2023-10-18T21:36:23.576Z,83.30
2023-10-18T21:38:50.433Z,83.00
2023-10-18T21:41:18.294Z,82.90
2023-10-18T21:43:48.039Z,82.20
2023-10-18T21:46:15.566Z,82.00
2023-10-18T21:48:42.913Z,82.40
2023-10-18T21:51:13.123Z,82.00
2023-10-18T21:53:41.013Z,81.40
2023-10-18T21:56:08.781Z,82.50
2023-10-18T21:58:40.467Z,83.50
2023-10-18T22:01:28.283Z,83.10
2023-10-18T22:03:57.099Z,83.30
2023-10-18T22:06:26.389Z,83.00
2023-10-18T22:08:53.256Z,82.90
2023-10-18T22:11:25.823Z,82.10
2023-10-18T22:13:55.875Z,81.10
2023-10-18T22:16:26.583Z,81.20
2023-10-18T22:18:56.427Z,82.20
2023-10-18T22:21:29.793Z,83.20
2023-10-18T22:24:00.405Z,83.20
2023-10-18T22:26:31.784Z,83.20
2023-10-18T22:29:01.111Z,83.50
2023-10-18T22:31:28.022Z,83.30
2023-10-18T22:33:56.025Z,83.30
2023-10-18T22:36:23.977Z,82.70
2023-10-18T22:38:51.679Z,82.40
2023-10-18T22:41:34.104Z,82.50
2023-10-18T22:44:09.566Z,82.80
2023-10-18T22:46:48.942Z,82.60
2023-10-18T22:49:24.109Z,82.40
2023-10-18T22:51:59.280Z,82.20
2023-10-18T22:54:43.197Z,81.90
2023-10-18T22:57:26.094Z,82.20
2023-10-18T22:59:54.236Z,82.30
2023-10-18T23:02:24.130Z,81.90
2023-10-18T23:04:55.650Z,81.70
2023-10-18T23:07:28.744Z,81.60
2023-10-18T23:09:55.975Z,81.70
2023-10-18T23:12:24.998Z,81.80
2023-10-18T23:15:19.033Z,82.00
2023-10-18T23:17:53.213Z,82.30
2023-10-18T23:20:36.427Z,82.40
2023-10-18T23:23:08.467Z,82.00
2023-10-18T23:25:54.084Z,83.70
2023-10-18T23:28:29.034Z,84.90
2023-10-18T23:30:58.776Z,85.70
2023-10-18T23:33:46.203Z,85.50
2023-10-18T23:36:15.988Z,85.40
2023-10-18T23:38:44.654Z,85.10
2023-10-18T23:41:21.555Z,84.80
2023-10-18T23:43:50.132Z,84.90
2023-10-18T23:46:37.378Z,84.80
2023-10-18T23:49:23.068Z,84.80
2023-10-18T23:52:15.276Z,85.10
2023-10-18T23:54:44.082Z,85.60
2023-10-18T23:57:13.664Z,86.00
2023-10-18T23:59:42.177Z,85.90
